KOZA

Details ICAO KOZA (OZA)
Name OZONA MUNI
Region United States
Timezone America/Chicago (UTC-5.0)
Plans Departing 4
Arriving 5
Stats Elevation 2,381 ft / 726 m (AMSL)
Location 30.735197° -101.202201°
Runways 1
Magnetic Variation 5.649° E
Sunrise 2018-05-23 11:47:03 UTC / 2018-05-23 06:47:03 Local
Sunset 2018-05-24 01:38:59 UTC / 2018-05-23 20:38:59 Local
Advertisement - Login to hide

Runways

ID Width Length Bearing (true) Bearing (mag) Surface Threshold Offset Overrun Length
16 75 ft / 23 m 6,020 ft / 1,835 m 167.77° 162.12° Asphalt 0 ft / 0 m 0 ft / 0 m
34 75 ft / 23 m 6,020 ft / 1,835 m 347.78° 342.13° Asphalt 0 ft / 0 m 0 ft / 0 m

Map

Weather


0- 5 10 15 20 25 30 35+ Temperature / ° C

Clouds and Precipitation
Forecast for 2018-05-23 12:00 UTC. Updated 4 hours ago

Ground ~20,000 ft ~40,000 ft Winds

METAR

KOZA 231455Z AUTO 16012KT 7SM BKN012 OVC018 22/19 A3010 RMK AO2

TAF

Not found

Frequencies

Unicom 122.80 MHz CTAF/UNICOM
Warning: Do not use this data for real-world aviation or navigation. No guarantee of current accuracy is given.